sensor_id;sensor_type;location;lat;lon;timestamp;pressure;altitude;pressure_sealevel;temperature;humidity
76358;BME280;65185;21.060;105.826;2023-07-13T00:00:37;100452.75;;;29.34;90.10
76358;BME280;65185;21.060;105.826;2023-07-13T00:03:04;100452.63;;;29.35;89.91
76358;BME280;65185;21.060;105.826;2023-07-13T00:05:31;100462.91;;;29.40;89.90
76358;BME280;65185;21.060;105.826;2023-07-13T00:07:57;100454.06;;;29.39;89.57
76358;BME280;65185;21.060;105.826;2023-07-13T00:10:24;100463.50;;;29.43;90.20
76358;BME280;65185;21.060;105.826;2023-07-13T00:12:51;100459.00;;;29.44;89.52
76358;BME280;65185;21.060;105.826;2023-07-13T00:15:24;100460.44;;;29.48;89.41
76358;BME280;65185;21.060;105.826;2023-07-13T00:17:53;100455.91;;;29.48;89.68
76358;BME280;65185;21.060;105.826;2023-07-13T00:20:21;100454.81;;;29.51;89.81
76358;BME280;65185;21.060;105.826;2023-07-13T00:22:49;100459.75;;;29.56;89.97
76358;BME280;65185;21.060;105.826;2023-07-13T00:25:16;100459.63;;;29.57;89.64
76358;BME280;65185;21.060;105.826;2023-07-13T00:27:43;100462.03;;;29.60;90.05
76358;BME280;65185;21.060;105.826;2023-07-13T00:30:10;100467.38;;;29.60;90.03
76358;BME280;65185;21.060;105.826;2023-07-13T00:32:37;100466.13;;;29.64;90.14
76358;BME280;65185;21.060;105.826;2023-07-13T00:35:04;100465.84;;;29.67;90.48
76358;BME280;65185;21.060;105.826;2023-07-13T00:37:31;100470.94;;;29.70;90.34
76358;BME280;65185;21.060;105.826;2023-07-13T00:39:58;100471.66;;;29.72;90.00
76358;BME280;65185;21.060;105.826;2023-07-13T00:42:24;100467.88;;;29.75;90.45
76358;BME280;65185;21.060;105.826;2023-07-13T00:47:39;100472.69;;;29.81;90.61
76358;BME280;65185;21.060;105.826;2023-07-13T00:50:09;100474.94;;;29.85;90.07
76358;BME280;65185;21.060;105.826;2023-07-13T00:52:39;100477.47;;;29.87;90.20
76358;BME280;65185;21.060;105.826;2023-07-13T00:55:07;100471.72;;;29.91;89.65
76358;BME280;65185;21.060;105.826;2023-07-13T00:57:35;100469.78;;;29.93;89.51
76358;BME280;65185;21.060;105.826;2023-07-13T01:00:04;100473.88;;;29.97;89.52
76358;BME280;65185;21.060;105.826;2023-07-13T01:02:33;100474.44;;;30.01;90.26
76358;BME280;65185;21.060;105.826;2023-07-13T01:05:00;100479.50;;;30.04;90.03
76358;BME280;65185;21.060;105.826;2023-07-13T01:07:27;100473.03;;;30.06;90.12
76358;BME280;65185;21.060;105.826;2023-07-13T01:09:54;100484.31;;;30.10;90.00
76358;BME280;65185;21.060;105.826;2023-07-13T01:12:20;100479.53;;;30.13;89.33
76358;BME280;65185;21.060;105.826;2023-07-13T01:14:46;100472.22;;;30.15;89.23
76358;BME280;65185;21.060;105.826;2023-07-13T01:17:13;100480.66;;;30.20;89.17
76358;BME280;65185;21.060;105.826;2023-07-13T01:19:45;100473.34;;;30.22;88.95
76358;BME280;65185;21.060;105.826;2023-07-13T01:22:17;100475.66;;;30.27;89.17
76358;BME280;65185;21.060;105.826;2023-07-13T01:24:46;100478.03;;;30.30;89.28
76358;BME280;65185;21.060;105.826;2023-07-13T01:27:15;100471.69;;;30.31;88.71
76358;BME280;65185;21.060;105.826;2023-07-13T01:29:42;100471.59;;;30.32;88.78
76358;BME280;65185;21.060;105.826;2023-07-13T01:32:11;100466.25;;;30.32;88.40
76358;BME280;65185;21.060;105.826;2023-07-13T01:34:38;100473.81;;;30.37;88.53
76358;BME280;65185;21.060;105.826;2023-07-13T01:37:09;100476.22;;;30.40;88.42
76358;BME280;65185;21.060;105.826;2023-07-13T01:39:36;100473.28;;;30.43;87.50
76358;BME280;65185;21.060;105.826;2023-07-13T01:42:03;100462.16;;;30.48;87.38
76358;BME280;65185;21.060;105.826;2023-07-13T01:44:30;100471.31;;;30.55;87.66
76358;BME280;65185;21.060;105.826;2023-07-13T01:46:56;100473.69;;;30.58;87.75
76358;BME280;65185;21.060;105.826;2023-07-13T01:49:23;100479.75;;;30.60;88.31
76358;BME280;65185;21.060;105.826;2023-07-13T01:51:50;100479.47;;;30.63;88.38
76358;BME280;65185;21.060;105.826;2023-07-13T01:54:16;100474.53;;;30.68;88.15
76358;BME280;65185;21.060;105.826;2023-07-13T01:56:43;100478.75;;;30.70;87.91
76358;BME280;65185;21.060;105.826;2023-07-13T01:59:09;100478.47;;;30.73;88.01
76358;BME280;65185;21.060;105.826;2023-07-13T02:01:36;100479.19;;;30.75;87.79
76358;BME280;65185;21.060;105.826;2023-07-13T02:04:03;100473.72;;;30.77;86.63
76358;BME280;65185;21.060;105.826;2023-07-13T02:06:29;100470.88;;;30.78;86.35
76358;BME280;65185;21.060;105.826;2023-07-13T02:08:55;100477.38;;;30.85;86.03
76358;BME280;65185;21.060;105.826;2023-07-13T02:11:22;100473.72;;;30.86;85.09
76358;BME280;65185;21.060;105.826;2023-07-13T02:13:48;100471.47;;;30.91;85.60
76358;BME280;65185;21.060;105.826;2023-07-13T02:16:15;100474.81;;;30.93;85.39
76358;BME280;65185;21.060;105.826;2023-07-13T02:18:42;100470.88;;;30.97;85.54
76358;BME280;65185;21.060;105.826;2023-07-13T02:21:08;100463.00;;;31.05;84.74
76358;BME280;65185;21.060;105.826;2023-07-13T02:23:35;100465.66;;;31.05;84.83
76358;BME280;65185;21.060;105.826;2023-07-13T02:26:03;100465.53;;;31.07;84.15
76358;BME280;65185;21.060;105.826;2023-07-13T02:28:29;100468.91;;;31.09;83.87
76358;BME280;65185;21.060;105.826;2023-07-13T02:31:07;100472.28;;;31.11;83.63
76358;BME280;65185;21.060;105.826;2023-07-13T02:33:34;100469.75;;;31.19;82.67
76358;BME280;65185;21.060;105.826;2023-07-13T02:36:01;100474.34;;;31.26;82.62
76358;BME280;65185;21.060;105.826;2023-07-13T02:38:27;100478.28;;;31.32;82.52
76358;BME280;65185;21.060;105.826;2023-07-13T02:40:54;100481.25;;;31.38;82.20
76358;BME280;65185;21.060;105.826;2023-07-13T02:43:21;100469.69;;;31.38;81.53
76358;BME280;65185;21.060;105.826;2023-07-13T02:45:48;100470.81;;;31.45;80.74
76358;BME280;65185;21.060;105.826;2023-07-13T02:48:14;100474.72;;;31.51;80.97
76358;BME280;65185;21.060;105.826;2023-07-13T02:50:41;100469.25;;;31.52;81.08
76358;BME280;65185;21.060;105.826;2023-07-13T02:53:07;100472.00;;;31.60;81.74
76358;BME280;65185;21.060;105.826;2023-07-13T02:55:34;100465.22;;;31.66;81.22
76358;BME280;65185;21.060;105.826;2023-07-13T02:58:00;100455.91;;;31.70;79.48
76358;BME280;65185;21.060;105.826;2023-07-13T03:00:27;100451.31;;;31.80;77.92
76358;BME280;65185;21.060;105.826;2023-07-13T03:02:54;100455.56;;;31.82;75.95
76358;BME280;65185;21.060;105.826;2023-07-13T03:05:23;100454.28;;;31.86;76.44
76358;BME280;65185;21.060;105.826;2023-07-13T03:07:50;100456.25;;;31.94;77.09
76358;BME280;65185;21.060;105.826;2023-07-13T03:10:16;100450.41;;;31.98;76.75
76358;BME280;65185;21.060;105.826;2023-07-13T03:12:43;100444.63;;;32.03;74.69
76358;BME280;65185;21.060;105.826;2023-07-13T03:15:09;100441.47;;;32.07;75.21
76358;BME280;65185;21.060;105.826;2023-07-13T03:17:36;100441.88;;;32.12;74.69
76358;BME280;65185;21.060;105.826;2023-07-13T03:20:02;100440.28;;;32.19;73.71
76358;BME280;65185;21.060;105.826;2023-07-13T03:22:29;100438.66;;;32.26;74.31
76358;BME280;65185;21.060;105.826;2023-07-13T03:24:55;100428.47;;;32.30;73.26
76358;BME280;65185;21.060;105.826;2023-07-13T03:27:22;100426.31;;;32.33;73.13
76358;BME280;65185;21.060;105.826;2023-07-13T03:29:48;100424.88;;;32.39;73.88
76358;BME280;65185;21.060;105.826;2023-07-13T03:32:15;100419.91;;;32.44;74.51
76358;BME280;65185;21.060;105.826;2023-07-13T03:34:41;100420.59;;;32.46;74.31
76358;BME280;65185;21.060;105.826;2023-07-13T03:37:08;100415.16;;;32.56;74.99
76358;BME280;65185;21.060;105.826;2023-07-13T03:39:34;100416.22;;;32.63;73.79
76358;BME280;65185;21.060;105.826;2023-07-13T03:42:00;100412.56;;;32.64;71.43
76358;BME280;65185;21.060;105.826;2023-07-13T03:44:27;100409.38;;;32.68;70.28
76358;BME280;65185;21.060;105.826;2023-07-13T03:46:54;100409.63;;;32.75;70.52
76358;BME280;65185;21.060;105.826;2023-07-13T03:49:20;100405.16;;;32.83;70.37
76358;BME280;65185;21.060;105.826;2023-07-13T03:51:46;100403.34;;;32.92;71.26
76358;BME280;65185;21.060;105.826;2023-07-13T03:54:13;100403.44;;;33.00;69.92
76358;BME280;65185;21.060;105.826;2023-07-13T03:56:39;100401.97;;;33.05;69.76
76358;BME280;65185;21.060;105.826;2023-07-13T03:59:06;100403.72;;;33.14;67.93
76358;BME280;65185;21.060;105.826;2023-07-13T04:01:33;100398.22;;;33.24;67.15
76358;BME280;65185;21.060;105.826;2023-07-13T04:03:59;100388.00;;;33.27;67.12
76358;BME280;65185;21.060;105.826;2023-07-13T04:06:28;100381.16;;;33.33;67.32
76358;BME280;65185;21.060;105.826;2023-07-13T04:08:57;100381.50;;;33.38;67.74
76358;BME280;65185;21.060;105.826;2023-07-13T04:11:25;100377.22;;;33.45;66.88
76358;BME280;65185;21.060;105.826;2023-07-13T04:13:52;100376.25;;;33.54;66.96
76358;BME280;65185;21.060;105.826;2023-07-13T04:16:19;100371.22;;;33.59;63.75
76358;BME280;65185;21.060;105.826;2023-07-13T04:18:47;100366.69;;;33.60;63.13
76358;BME280;65185;21.060;105.826;2023-07-13T04:21:14;100367.22;;;33.63;64.54
76358;BME280;65185;21.060;105.826;2023-07-13T04:23:41;100365.03;;;33.67;64.37
76358;BME280;65185;21.060;105.826;2023-07-13T04:26:11;100370.91;;;33.70;64.79
76358;BME280;65185;21.060;105.826;2023-07-13T04:28:37;100363.38;;;33.74;65.22
76358;BME280;65185;21.060;105.826;2023-07-13T04:31:04;100360.69;;;33.74;64.92
76358;BME280;65185;21.060;105.826;2023-07-13T04:33:30;100358.03;;;33.82;64.82
76358;BME280;65185;21.060;105.826;2023-07-13T04:35:57;100357.72;;;33.93;63.97
76358;BME280;65185;21.060;105.826;2023-07-13T04:38:28;100347.50;;;34.12;63.69
76358;BME280;65185;21.060;105.826;2023-07-13T04:41:00;100341.81;;;34.23;63.37
76358;BME280;65185;21.060;105.826;2023-07-13T04:43:27;100348.19;;;34.39;63.83
76358;BME280;65185;21.060;105.826;2023-07-13T04:45:54;100340.63;;;34.58;62.79
76358;BME280;65185;21.060;105.826;2023-07-13T04:48:21;100342.84;;;34.63;62.08
76358;BME280;65185;21.060;105.826;2023-07-13T04:50:47;100335.56;;;34.71;61.55
76358;BME280;65185;21.060;105.826;2023-07-13T04:53:19;100333.03;;;34.78;61.60
76358;BME280;65185;21.060;105.826;2023-07-13T04:55:46;100331.66;;;34.90;61.24
76358;BME280;65185;21.060;105.826;2023-07-13T04:58:12;100326.63;;;35.03;60.65
76358;BME280;65185;21.060;105.826;2023-07-13T05:00:39;100329.59;;;35.16;60.68
76358;BME280;65185;21.060;105.826;2023-07-13T05:03:06;100341.53;;;35.22;59.73
76358;BME280;65185;21.060;105.826;2023-07-13T05:05:32;100330.91;;;35.20;59.96
76358;BME280;65185;21.060;105.826;2023-07-13T05:08:00;100332.78;;;35.20;59.60
76358;BME280;65185;21.060;105.826;2023-07-13T05:10:26;100327.25;;;35.13;59.29
76358;BME280;65185;21.060;105.826;2023-07-13T05:12:53;100329.31;;;35.03;59.50
76358;BME280;65185;21.060;105.826;2023-07-13T05:15:21;100328.81;;;34.99;60.67
76358;BME280;65185;21.060;105.826;2023-07-13T05:17:49;100331.50;;;34.91;61.01
76358;BME280;65185;21.060;105.826;2023-07-13T05:20:17;100332.34;;;34.92;61.33
76358;BME280;65185;21.060;105.826;2023-07-13T05:22:43;100331.50;;;34.91;61.31
76358;BME280;65185;21.060;105.826;2023-07-13T05:25:12;100332.66;;;34.89;61.78
76358;BME280;65185;21.060;105.826;2023-07-13T05:27:39;100329.84;;;34.82;60.83
76358;BME280;65185;21.060;105.826;2023-07-13T05:30:06;100330.19;;;34.71;61.14
76358;BME280;65185;21.060;105.826;2023-07-13T05:32:36;100326.00;;;34.61;60.72
76358;BME280;65185;21.060;105.826;2023-07-13T05:35:03;100317.94;;;34.53;60.30
76358;BME280;65185;21.060;105.826;2023-07-13T05:37:29;100322.47;;;34.44;61.38
76358;BME280;65185;21.060;105.826;2023-07-13T05:39:56;100311.88;;;34.51;62.23
76358;BME280;65185;21.060;105.826;2023-07-13T05:42:22;100311.53;;;34.54;61.55
76358;BME280;65185;21.060;105.826;2023-07-13T05:44:49;100310.53;;;34.55;61.52
76358;BME280;65185;21.060;105.826;2023-07-13T05:47:15;100315.06;;;34.54;61.47
76358;BME280;65185;21.060;105.826;2023-07-13T05:49:42;100306.69;;;34.57;60.06
76358;BME280;65185;21.060;105.826;2023-07-13T05:52:15;100308.84;;;34.62;60.83
76358;BME280;65185;21.060;105.826;2023-07-13T05:54:42;100299.91;;;34.61;61.00
76358;BME280;65185;21.060;105.826;2023-07-13T05:57:08;100300.28;;;34.66;61.20
76358;BME280;65185;21.060;105.826;2023-07-13T05:59:35;100289.31;;;34.60;60.81
76358;BME280;65185;21.060;105.826;2023-07-13T06:02:02;100283.81;;;34.53;60.66
76358;BME280;65185;21.060;105.826;2023-07-13T06:04:29;100285.28;;;34.56;60.23
76358;BME280;65185;21.060;105.826;2023-07-13T06:06:56;100280.28;;;34.45;60.38
76358;BME280;65185;21.060;105.826;2023-07-13T06:09:22;100267.47;;;34.31;60.88
76358;BME280;65185;21.060;105.826;2023-07-13T06:11:48;100269.84;;;34.26;60.93
76358;BME280;65185;21.060;105.826;2023-07-13T06:14:15;100264.78;;;34.22;61.55
76358;BME280;65185;21.060;105.826;2023-07-13T06:16:41;100255.22;;;34.20;61.41
76358;BME280;65185;21.060;105.826;2023-07-13T06:19:08;100255.22;;;34.12;61.88
76358;BME280;65185;21.060;105.826;2023-07-13T06:21:34;100258.75;;;34.12;61.68
76358;BME280;65185;21.060;105.826;2023-07-13T06:24:01;100260.09;;;34.16;61.96
76358;BME280;65185;21.060;105.826;2023-07-13T06:26:27;100254.69;;;34.24;61.38
76358;BME280;65185;21.060;105.826;2023-07-13T06:28:54;100255.72;;;34.15;62.06
76358;BME280;65185;21.060;105.826;2023-07-13T06:31:20;100245.81;;;34.08;60.47
76358;BME280;65185;21.060;105.826;2023-07-13T06:33:47;100245.66;;;34.09;59.90
76358;BME280;65185;21.060;105.826;2023-07-13T06:36:14;100244.28;;;34.21;60.06
76358;BME280;65185;21.060;105.826;2023-07-13T06:38:40;100238.91;;;34.30;59.82
76358;BME280;65185;21.060;105.826;2023-07-13T06:41:08;100233.19;;;34.24;60.34
76358;BME280;65185;21.060;105.826;2023-07-13T06:43:34;100232.19;;;34.26;60.44
76358;BME280;65185;21.060;105.826;2023-07-13T06:46:01;100225.97;;;34.17;60.04
76358;BME280;65185;21.060;105.826;2023-07-13T06:48:27;100222.44;;;34.00;60.84
76358;BME280;65185;21.060;105.826;2023-07-13T06:50:54;100213.53;;;33.92;61.22
76358;BME280;65185;21.060;105.826;2023-07-13T06:53:21;100206.97;;;33.86;60.99
76358;BME280;65185;21.060;105.826;2023-07-13T06:55:48;100201.28;;;33.81;60.37
76358;BME280;65185;21.060;105.826;2023-07-13T06:58:16;100208.31;;;33.82;60.84
76358;BME280;65185;21.060;105.826;2023-07-13T07:00:43;100203.09;;;33.81;61.07
76358;BME280;65185;21.060;105.826;2023-07-13T07:03:09;100201.41;;;33.88;60.52
76358;BME280;65185;21.060;105.826;2023-07-13T07:05:36;100193.19;;;33.89;60.51
76358;BME280;65185;21.060;105.826;2023-07-13T07:08:03;100196.41;;;33.93;60.79
76358;BME280;65185;21.060;105.826;2023-07-13T07:10:30;100191.69;;;33.87;60.83
76358;BME280;65185;21.060;105.826;2023-07-13T07:12:57;100190.00;;;33.86;60.85
76358;BME280;65185;21.060;105.826;2023-07-13T07:15:24;100181.28;;;33.76;60.88
76358;BME280;65185;21.060;105.826;2023-07-13T07:17:50;100182.97;;;33.85;62.05
76358;BME280;65185;21.060;105.826;2023-07-13T07:20:17;100173.06;;;33.85;62.21
76358;BME280;65185;21.060;105.826;2023-07-13T07:22:43;100175.38;;;33.80;61.34
76358;BME280;65185;21.060;105.826;2023-07-13T07:25:10;100170.19;;;33.71;61.50
76358;BME280;65185;21.060;105.826;2023-07-13T07:27:36;100160.44;;;33.70;59.07
76358;BME280;65185;21.060;105.826;2023-07-13T07:30:03;100155.25;;;33.68;60.27
76358;BME280;65185;21.060;105.826;2023-07-13T07:32:30;100160.28;;;33.79;59.99
76358;BME280;65185;21.060;105.826;2023-07-13T07:34:58;100158.44;;;33.80;60.03
76358;BME280;65185;21.060;105.826;2023-07-13T07:37:24;100144.81;;;33.81;60.80
76358;BME280;65185;21.060;105.826;2023-07-13T07:39:51;100141.44;;;33.71;61.25
76358;BME280;65185;21.060;105.826;2023-07-13T07:42:17;100143.31;;;33.71;60.09
76358;BME280;65185;21.060;105.826;2023-07-13T07:44:44;100132.91;;;33.60;59.98
76358;BME280;65185;21.060;105.826;2023-07-13T07:47:10;100132.56;;;33.55;60.66
76358;BME280;65185;21.060;105.826;2023-07-13T07:49:37;100134.56;;;33.53;59.86
76358;BME280;65185;21.060;105.826;2023-07-13T07:52:04;100122.81;;;33.46;60.09
76358;BME280;65185;21.060;105.826;2023-07-13T07:54:30;100121.84;;;33.47;59.79
76358;BME280;65185;21.060;105.826;2023-07-13T07:56:57;100118.28;;;33.46;60.54
76358;BME280;65185;21.060;105.826;2023-07-13T07:59:23;100116.13;;;33.50;60.25
76358;BME280;65185;21.060;105.826;2023-07-13T08:01:50;100112.41;;;33.51;61.08
76358;BME280;65185;21.060;105.826;2023-07-13T08:04:16;100106.84;;;33.44;60.78
76358;BME280;65185;21.060;105.826;2023-07-13T08:06:43;100107.03;;;33.51;60.75
76358;BME280;65185;21.060;105.826;2023-07-13T08:09:10;100107.56;;;33.46;60.93
76358;BME280;65185;21.060;105.826;2023-07-13T08:11:36;100099.16;;;33.49;61.51
76358;BME280;65185;21.060;105.826;2023-07-13T08:14:03;100109.91;;;33.57;61.57
76358;BME280;65185;21.060;105.826;2023-07-13T08:16:29;100094.78;;;33.56;61.41
76358;BME280;65185;21.060;105.826;2023-07-13T08:18:58;100088.41;;;33.49;61.77
76358;BME280;65185;21.060;105.826;2023-07-13T08:21:25;100095.97;;;33.46;61.34
76358;BME280;65185;21.060;105.826;2023-07-13T08:23:51;100083.00;;;33.41;60.76
76358;BME280;65185;21.060;105.826;2023-07-13T08:26:18;100085.03;;;33.39;60.18
76358;BME280;65185;21.060;105.826;2023-07-13T08:28:44;100081.84;;;33.36;60.17
76358;BME280;65185;21.060;105.826;2023-07-13T08:31:11;100074.09;;;33.33;60.53
76358;BME280;65185;21.060;105.826;2023-07-13T08:33:37;100072.25;;;33.33;61.29
76358;BME280;65185;21.060;105.826;2023-07-13T08:36:04;100072.25;;;33.33;61.19
76358;BME280;65185;21.060;105.826;2023-07-13T08:38:35;100069.06;;;33.29;61.85
76358;BME280;65185;21.060;105.826;2023-07-13T08:41:14;100070.09;;;33.28;61.45
76358;BME280;65185;21.060;105.826;2023-07-13T08:43:44;100062.53;;;33.24;61.94
76358;BME280;65185;21.060;105.826;2023-07-13T08:56:56;100050.44;;;33.20;61.09
76358;BME280;65185;21.060;105.826;2023-07-13T08:59:26;100051.13;;;33.22;60.31
76358;BME280;65185;21.060;105.826;2023-07-13T09:10:00;100046.91;;;33.27;61.90
76358;BME280;65185;21.060;105.826;2023-07-13T09:15:48;100033.66;;;33.18;64.09
76358;BME280;65185;21.060;105.826;2023-07-13T09:18:38;100035.84;;;33.14;64.19
76358;BME280;65185;21.060;105.826;2023-07-13T09:23:38;100041.03;;;33.08;63.18
76358;BME280;65185;21.060;105.826;2023-07-13T09:26:16;100053.78;;;33.06;63.85
76358;BME280;65185;21.060;105.826;2023-07-13T09:28:46;100048.59;;;33.04;64.25
76358;BME280;65185;21.060;105.826;2023-07-13T09:31:34;100050.94;;;33.07;63.61
76358;BME280;65185;21.060;105.826;2023-07-13T09:34:08;100049.91;;;33.08;64.09
76358;BME280;65185;21.060;105.826;2023-07-13T09:36:35;100061.34;;;33.10;64.33
76358;BME280;65185;21.060;105.826;2023-07-13T09:44:28;100063.19;;;33.10;63.45
76358;BME280;65185;21.060;105.826;2023-07-13T09:46:57;100071.94;;;33.12;63.97
76358;BME280;65185;21.060;105.826;2023-07-13T09:49:34;100069.38;;;33.10;63.94
76358;BME280;65185;21.060;105.826;2023-07-13T09:52:05;100068.88;;;33.07;63.10
76358;BME280;65185;21.060;105.826;2023-07-13T09:54:36;100074.44;;;33.05;63.21
76358;BME280;65185;21.060;105.826;2023-07-13T09:57:26;100065.72;;;33.11;63.45
76358;BME280;65185;21.060;105.826;2023-07-13T09:59:53;100065.06;;;33.17;62.85
76358;BME280;65185;21.060;105.826;2023-07-13T10:02:30;100061.84;;;33.14;64.02
76358;BME280;65185;21.060;105.826;2023-07-13T10:05:10;100052.28;;;33.11;64.40
76358;BME280;65185;21.060;105.826;2023-07-13T10:07:43;100048.94;;;33.09;63.95
76358;BME280;65185;21.060;105.826;2023-07-13T10:10:22;100052.78;;;33.07;64.25
76358;BME280;65185;21.060;105.826;2023-07-13T10:12:49;100054.78;;;33.05;64.49
76358;BME280;65185;21.060;105.826;2023-07-13T10:15:19;100053.59;;;32.99;63.85
76358;BME280;65185;21.060;105.826;2023-07-13T10:17:47;100055.63;;;32.97;65.07
76358;BME280;65185;21.060;105.826;2023-07-13T10:20:14;100059.16;;;32.98;64.56
76358;BME280;65185;21.060;105.826;2023-07-13T10:23:15;100060.97;;;32.97;65.04
76358;BME280;65185;21.060;105.826;2023-07-13T10:25:42;100071.56;;;33.07;64.20
76358;BME280;65185;21.060;105.826;2023-07-13T10:30:51;100058.50;;;33.12;63.74
76358;BME280;65185;21.060;105.826;2023-07-13T10:33:19;100059.31;;;33.12;64.88
76358;BME280;65185;21.060;105.826;2023-07-13T10:35:47;100068.06;;;33.06;64.38
76358;BME280;65185;21.060;105.826;2023-07-13T10:38:34;100059.16;;;33.06;64.04
76358;BME280;65185;21.060;105.826;2023-07-13T10:41:09;100065.88;;;33.10;63.30
76358;BME280;65185;21.060;105.826;2023-07-13T10:43:43;100062.00;;;33.12;64.84
76358;BME280;65185;21.060;105.826;2023-07-13T10:46:18;100065.72;;;33.11;64.51
76358;BME280;65185;21.060;105.826;2023-07-13T10:48:49;100064.53;;;33.06;64.41
76358;BME280;65185;21.060;105.826;2023-07-13T10:51:18;100060.16;;;32.97;65.08
76358;BME280;65185;21.060;105.826;2023-07-13T10:54:14;100058.31;;;32.97;65.02
76358;BME280;65185;21.060;105.826;2023-07-13T10:56:44;100056.94;;;32.93;65.32
76358;BME280;65185;21.060;105.826;2023-07-13T10:59:24;100056.75;;;32.87;65.43
76358;BME280;65185;21.060;105.826;2023-07-13T11:01:58;100056.75;;;32.79;65.84
76358;BME280;65185;21.060;105.826;2023-07-13T11:04:41;100060.75;;;32.83;66.21
76358;BME280;65185;21.060;105.826;2023-07-13T11:07:20;100048.03;;;32.77;66.40
76358;BME280;65185;21.060;105.826;2023-07-13T11:09:51;100051.19;;;32.72;67.41
76358;BME280;65185;21.060;105.826;2023-07-13T11:22:51;100062.06;;;32.63;67.20
76358;BME280;65185;21.060;105.826;2023-07-13T11:25:25;100059.53;;;32.61;67.36
76358;BME280;65185;21.060;105.826;2023-07-13T11:36:13;100074.28;;;32.57;67.30
76358;BME280;65185;21.060;105.826;2023-07-13T11:38:45;100075.31;;;32.56;67.90
76358;BME280;65185;21.060;105.826;2023-07-13T11:41:17;100084.34;;;32.55;67.81
76358;BME280;65185;21.060;105.826;2023-07-13T11:43:45;100083.50;;;32.55;67.03
76358;BME280;65185;21.060;105.826;2023-07-13T11:46:15;100085.69;;;32.59;67.86
76358;BME280;65185;21.060;105.826;2023-07-13T11:48:42;100100.59;;;32.54;67.77
76358;BME280;65185;21.060;105.826;2023-07-13T11:51:24;100106.63;;;32.48;68.11
76358;BME280;65185;21.060;105.826;2023-07-13T11:53:54;100112.28;;;32.45;68.82
76358;BME280;65185;21.060;105.826;2023-07-13T11:56:23;100127.53;;;32.44;68.30
76358;BME280;65185;21.060;105.826;2023-07-13T11:58:53;100136.59;;;32.43;68.27
76358;BME280;65185;21.060;105.826;2023-07-13T12:01:26;100137.72;;;32.41;68.60
76358;BME280;65185;21.060;105.826;2023-07-13T12:04:03;100132.69;;;32.38;68.62
76358;BME280;65185;21.060;105.826;2023-07-13T12:06:34;100134.53;;;32.37;67.90
76358;BME280;65185;21.060;105.826;2023-07-13T12:09:14;100134.34;;;32.38;68.21
76358;BME280;65185;21.060;105.826;2023-07-13T12:11:44;100138.44;;;32.43;68.68
76358;BME280;65185;21.060;105.826;2023-07-13T12:14:17;100145.94;;;32.39;69.03
76358;BME280;65185;21.060;105.826;2023-07-13T12:16:46;100154.16;;;32.38;69.21
76358;BME280;65185;21.060;105.826;2023-07-13T12:19:28;100154.53;;;32.43;69.51
76358;BME280;65185;21.060;105.826;2023-07-13T12:21:57;100157.91;;;32.45;71.02
76358;BME280;65185;21.060;105.826;2023-07-13T12:24:24;100157.72;;;32.46;71.48
76358;BME280;65185;21.060;105.826;2023-07-13T12:26:59;100162.63;;;32.51;72.11
76358;BME280;65185;21.060;105.826;2023-07-13T12:29:27;100165.47;;;32.49;72.91
76358;BME280;65185;21.060;105.826;2023-07-13T12:31:53;100172.84;;;32.55;73.41
76358;BME280;65185;21.060;105.826;2023-07-13T12:34:23;100171.34;;;32.53;74.19
76358;BME280;65185;21.060;105.826;2023-07-13T12:37:00;100176.72;;;32.53;74.28
76358;BME280;65185;21.060;105.826;2023-07-13T12:39:47;100181.06;;;32.54;74.26
76358;BME280;65185;21.060;105.826;2023-07-13T12:44:41;100191.63;;;32.47;75.78
76358;BME280;65185;21.060;105.826;2023-07-13T12:47:12;100196.81;;;32.49;75.91
76358;BME280;65185;21.060;105.826;2023-07-13T12:49:49;100193.63;;;32.45;76.75
76358;BME280;65185;21.060;105.826;2023-07-13T12:52:20;100195.63;;;32.43;75.83
76358;BME280;65185;21.060;105.826;2023-07-13T12:55:05;100210.13;;;32.41;76.04
76358;BME280;65185;21.060;105.826;2023-07-13T12:57:39;100210.47;;;32.38;75.67
76358;BME280;65185;21.060;105.826;2023-07-13T13:00:27;100220.50;;;32.35;75.76
76358;BME280;65185;21.060;105.826;2023-07-13T13:02:54;100221.53;;;32.34;75.79
76358;BME280;65185;21.060;105.826;2023-07-13T13:05:22;100224.22;;;32.34;75.74
76358;BME280;65185;21.060;105.826;2023-07-13T13:07:51;100219.97;;;32.32;75.92
76358;BME280;65185;21.060;105.826;2023-07-13T13:10:18;100226.66;;;32.28;77.08
76358;BME280;65185;21.060;105.826;2023-07-13T13:12:44;100226.28;;;32.23;76.95
76358;BME280;65185;21.060;105.826;2023-07-13T13:15:11;100239.00;;;32.21;76.98
76358;BME280;65185;21.060;105.826;2023-07-13T13:17:38;100243.84;;;32.17;76.66
76358;BME280;65185;21.060;105.826;2023-07-13T13:20:20;100251.56;;;32.20;75.78
76358;BME280;65185;21.060;105.826;2023-07-13T13:22:48;100258.09;;;32.18;75.29
76358;BME280;65185;21.060;105.826;2023-07-13T13:25:15;100262.09;;;32.14;74.75
76358;BME280;65185;21.060;105.826;2023-07-13T13:27:42;100270.13;;;32.14;73.51
76358;BME280;65185;21.060;105.826;2023-07-13T13:30:14;100267.28;;;32.15;73.85
76358;BME280;65185;21.060;105.826;2023-07-13T13:32:46;100270.13;;;32.14;73.04
76358;BME280;65185;21.060;105.826;2023-07-13T13:35:15;100281.38;;;32.17;72.11